sensor_id;sensor_type;location;lat;lon;timestamp;temperature;humidity
10276;DHT22;5183;51.190;6.820;2023-02-23T00:01:13;9.10;99.90
10276;DHT22;5183;51.190;6.820;2023-02-23T00:03:40;9.10;99.90
10276;DHT22;5183;51.190;6.820;2023-02-23T00:06:07;9.10;99.90
10276;DHT22;5183;51.190;6.820;2023-02-23T00:08:34;9.10;99.90
10276;DHT22;5183;51.190;6.820;2023-02-23T00:11:02;9.10;99.90
10276;DHT22;5183;51.190;6.820;2023-02-23T00:13:31;9.10;99.90
10276;DHT22;5183;51.190;6.820;2023-02-23T00:16:04;9.10;99.90
10276;DHT22;5183;51.190;6.820;2023-02-23T00:18:31;9.10;99.90
10276;DHT22;5183;51.190;6.820;2023-02-23T00:21:11;9.10;99.90
10276;DHT22;5183;51.190;6.820;2023-02-23T00:23:41;9.10;99.90
10276;DHT22;5183;51.190;6.820;2023-02-23T00:26:08;9.10;99.90
10276;DHT22;5183;51.190;6.820;2023-02-23T00:28:36;9.10;99.90
10276;DHT22;5183;51.190;6.820;2023-02-23T00:31:03;9.10;99.90
10276;DHT22;5183;51.190;6.820;2023-02-23T00:33:30;9.10;99.90
10276;DHT22;5183;51.190;6.820;2023-02-23T00:36:03;9.10;99.90
10276;DHT22;5183;51.190;6.820;2023-02-23T00:38:30;9.10;99.90
10276;DHT22;5183;51.190;6.820;2023-02-23T00:41:03;9.10;99.90
10276;DHT22;5183;51.190;6.820;2023-02-23T00:43:33;9.10;99.90
10276;DHT22;5183;51.190;6.820;2023-02-23T00:46:01;9.10;99.90
10276;DHT22;5183;51.190;6.820;2023-02-23T00:48:31;9.10;99.90
10276;DHT22;5183;51.190;6.820;2023-02-23T00:50:59;9.10;99.90
10276;DHT22;5183;51.190;6.820;2023-02-23T00:53:26;9.10;99.90
10276;DHT22;5183;51.190;6.820;2023-02-23T00:55:53;9.10;99.90
10276;DHT22;5183;51.190;6.820;2023-02-23T00:58:21;9.10;99.90
10276;DHT22;5183;51.190;6.820;2023-02-23T01:00:48;9.10;99.90
10276;DHT22;5183;51.190;6.820;2023-02-23T01:03:16;9.10;99.90
10276;DHT22;5183;51.190;6.820;2023-02-23T01:05:43;9.10;99.90
10276;DHT22;5183;51.190;6.820;2023-02-23T01:08:10;9.10;99.90
10276;DHT22;5183;51.190;6.820;2023-02-23T01:10:38;9.10;99.90
10276;DHT22;5183;51.190;6.820;2023-02-23T01:13:07;9.00;99.90
10276;DHT22;5183;51.190;6.820;2023-02-23T01:15:39;9.10;99.90
10276;DHT22;5183;51.190;6.820;2023-02-23T01:18:06;9.10;99.90
10276;DHT22;5183;51.190;6.820;2023-02-23T01:20:34;9.10;99.90
10276;DHT22;5183;51.190;6.820;2023-02-23T01:23:02;9.10;99.90
10276;DHT22;5183;51.190;6.820;2023-02-23T01:25:29;9.00;99.90
10276;DHT22;5183;51.190;6.820;2023-02-23T01:27:56;9.00;99.90
10276;DHT22;5183;51.190;6.820;2023-02-23T01:30:23;9.00;99.90
10276;DHT22;5183;51.190;6.820;2023-02-23T01:32:50;9.00;99.90
10276;DHT22;5183;51.190;6.820;2023-02-23T01:35:17;9.00;99.90
10276;DHT22;5183;51.190;6.820;2023-02-23T01:37:45;9.00;99.90
10276;DHT22;5183;51.190;6.820;2023-02-23T01:40:16;9.00;99.90
10276;DHT22;5183;51.190;6.820;2023-02-23T01:42:53;9.00;99.90
10276;DHT22;5183;51.190;6.820;2023-02-23T01:45:25;9.00;99.90
10276;DHT22;5183;51.190;6.820;2023-02-23T01:47:54;9.00;99.90
10276;DHT22;5183;51.190;6.820;2023-02-23T01:50:24;9.00;99.90
10276;DHT22;5183;51.190;6.820;2023-02-23T01:52:54;9.00;99.90
10276;DHT22;5183;51.190;6.820;2023-02-23T01:55:24;9.00;99.90
10276;DHT22;5183;51.190;6.820;2023-02-23T01:57:57;9.00;99.90
10276;DHT22;5183;51.190;6.820;2023-02-23T02:00:26;9.00;99.90
10276;DHT22;5183;51.190;6.820;2023-02-23T02:02:53;9.00;99.90
10276;DHT22;5183;51.190;6.820;2023-02-23T02:05:20;9.00;99.90
10276;DHT22;5183;51.190;6.820;2023-02-23T02:07:48;9.00;99.90
10276;DHT22;5183;51.190;6.820;2023-02-23T02:10:25;9.00;99.90
10276;DHT22;5183;51.190;6.820;2023-02-23T02:13:18;9.00;99.90
10276;DHT22;5183;51.190;6.820;2023-02-23T02:18:55;9.00;99.90
10276;DHT22;5183;51.190;6.820;2023-02-23T02:21:42;8.90;99.90
10276;DHT22;5183;51.190;6.820;2023-02-23T02:24:47;9.00;99.90
10276;DHT22;5183;51.190;6.820;2023-02-23T02:27:39;8.90;99.90
10276;DHT22;5183;51.190;6.820;2023-02-23T02:30:48;8.90;99.90
10276;DHT22;5183;51.190;6.820;2023-02-23T02:33:44;8.90;99.90
10276;DHT22;5183;51.190;6.820;2023-02-23T02:36:44;8.90;99.90
10276;DHT22;5183;51.190;6.820;2023-02-23T02:39:14;8.90;99.90
10276;DHT22;5183;51.190;6.820;2023-02-23T02:41:55;8.90;99.90
10276;DHT22;5183;51.190;6.820;2023-02-23T02:44:32;8.90;99.90
10276;DHT22;5183;51.190;6.820;2023-02-23T02:47:07;8.80;99.90
10276;DHT22;5183;51.190;6.820;2023-02-23T02:49:41;8.90;99.90
10276;DHT22;5183;51.190;6.820;2023-02-23T02:52:15;8.80;99.90
10276;DHT22;5183;51.190;6.820;2023-02-23T02:54:48;8.80;99.90
10276;DHT22;5183;51.190;6.820;2023-02-23T02:57:19;8.80;99.90
10276;DHT22;5183;51.190;6.820;2023-02-23T02:59:48;8.80;99.90
10276;DHT22;5183;51.190;6.820;2023-02-23T03:02:34;8.80;99.90
10276;DHT22;5183;51.190;6.820;2023-02-23T03:05:22;8.80;99.90
10276;DHT22;5183;51.190;6.820;2023-02-23T03:08:16;8.80;99.90
10276;DHT22;5183;51.190;6.820;2023-02-23T03:11:06;8.80;99.90
10276;DHT22;5183;51.190;6.820;2023-02-23T03:13:59;8.80;99.90
10276;DHT22;5183;51.190;6.820;2023-02-23T03:16:52;8.80;99.90
10276;DHT22;5183;51.190;6.820;2023-02-23T03:19:42;8.80;99.90
10276;DHT22;5183;51.190;6.820;2023-02-23T03:22:35;8.80;99.90
10276;DHT22;5183;51.190;6.820;2023-02-23T03:25:26;8.80;99.90
10276;DHT22;5183;51.190;6.820;2023-02-23T03:28:16;8.80;99.90
10276;DHT22;5183;51.190;6.820;2023-02-23T03:31:08;8.80;99.90
10276;DHT22;5183;51.190;6.820;2023-02-23T03:34:02;8.80;99.90
10276;DHT22;5183;51.190;6.820;2023-02-23T03:36:53;8.80;99.90
10276;DHT22;5183;51.190;6.820;2023-02-23T03:39:41;8.80;99.90
10276;DHT22;5183;51.190;6.820;2023-02-23T03:42:33;8.70;99.90
10276;DHT22;5183;51.190;6.820;2023-02-23T03:45:20;8.70;99.90
10276;DHT22;5183;51.190;6.820;2023-02-23T03:48:09;8.70;99.90
10276;DHT22;5183;51.190;6.820;2023-02-23T03:50:56;8.60;99.90
10276;DHT22;5183;51.190;6.820;2023-02-23T03:53:46;8.60;99.90
10276;DHT22;5183;51.190;6.820;2023-02-23T03:56:33;8.60;99.90
10276;DHT22;5183;51.190;6.820;2023-02-23T03:59:25;8.60;99.90
10276;DHT22;5183;51.190;6.820;2023-02-23T04:02:13;8.60;99.90
10276;DHT22;5183;51.190;6.820;2023-02-23T04:05:02;8.60;99.90
10276;DHT22;5183;51.190;6.820;2023-02-23T04:07:50;8.60;99.90
10276;DHT22;5183;51.190;6.820;2023-02-23T04:10:40;8.60;99.90
10276;DHT22;5183;51.190;6.820;2023-02-23T04:13:29;8.60;99.90
10276;DHT22;5183;51.190;6.820;2023-02-23T04:16:04;8.60;99.90
10276;DHT22;5183;51.190;6.820;2023-02-23T04:18:32;8.60;99.90
10276;DHT22;5183;51.190;6.820;2023-02-23T04:21:00;8.60;99.90
10276;DHT22;5183;51.190;6.820;2023-02-23T04:23:28;8.60;99.90
10276;DHT22;5183;51.190;6.820;2023-02-23T04:25:55;8.50;99.90
10276;DHT22;5183;51.190;6.820;2023-02-23T04:28:23;8.50;99.90
10276;DHT22;5183;51.190;6.820;2023-02-23T04:30:51;8.50;99.90
10276;DHT22;5183;51.190;6.820;2023-02-23T04:33:19;8.40;99.90
10276;DHT22;5183;51.190;6.820;2023-02-23T04:35:47;8.40;99.90
10276;DHT22;5183;51.190;6.820;2023-02-23T04:38:14;8.40;99.90
10276;DHT22;5183;51.190;6.820;2023-02-23T04:40:40;8.40;99.90
10276;DHT22;5183;51.190;6.820;2023-02-23T04:43:09;8.40;99.90
10276;DHT22;5183;51.190;6.820;2023-02-23T04:45:36;8.40;99.90
10276;DHT22;5183;51.190;6.820;2023-02-23T04:48:03;8.40;99.90
10276;DHT22;5183;51.190;6.820;2023-02-23T04:50:31;8.50;99.90
10276;DHT22;5183;51.190;6.820;2023-02-23T04:52:58;8.40;99.90
10276;DHT22;5183;51.190;6.820;2023-02-23T04:55:25;8.40;99.90
10276;DHT22;5183;51.190;6.820;2023-02-23T04:57:56;8.50;99.90
10276;DHT22;5183;51.190;6.820;2023-02-23T05:00:23;8.50;99.90
10276;DHT22;5183;51.190;6.820;2023-02-23T05:02:50;8.50;99.90
10276;DHT22;5183;51.190;6.820;2023-02-23T05:05:17;8.40;99.90
10276;DHT22;5183;51.190;6.820;2023-02-23T05:07:47;8.40;99.90
10276;DHT22;5183;51.190;6.820;2023-02-23T05:10:14;8.40;99.90
10276;DHT22;5183;51.190;6.820;2023-02-23T05:12:40;8.40;99.90
10276;DHT22;5183;51.190;6.820;2023-02-23T05:15:08;8.40;99.90
10276;DHT22;5183;51.190;6.820;2023-02-23T05:17:37;8.40;99.90
10276;DHT22;5183;51.190;6.820;2023-02-23T05:20:06;8.40;99.90
10276;DHT22;5183;51.190;6.820;2023-02-23T05:22:33;8.40;99.90
10276;DHT22;5183;51.190;6.820;2023-02-23T05:25:01;8.40;99.90
10276;DHT22;5183;51.190;6.820;2023-02-23T05:27:28;8.40;99.90
10276;DHT22;5183;51.190;6.820;2023-02-23T05:29:57;8.40;99.90
10276;DHT22;5183;51.190;6.820;2023-02-23T05:32:23;8.40;99.90
10276;DHT22;5183;51.190;6.820;2023-02-23T05:34:50;8.40;99.90
10276;DHT22;5183;51.190;6.820;2023-02-23T05:37:17;8.40;99.90
10276;DHT22;5183;51.190;6.820;2023-02-23T05:39:45;8.40;99.90
10276;DHT22;5183;51.190;6.820;2023-02-23T05:42:13;8.40;99.90
10276;DHT22;5183;51.190;6.820;2023-02-23T05:44:40;8.40;99.90
10276;DHT22;5183;51.190;6.820;2023-02-23T05:47:07;8.40;99.90
10276;DHT22;5183;51.190;6.820;2023-02-23T05:49:33;8.40;99.90
10276;DHT22;5183;51.190;6.820;2023-02-23T05:52:00;8.40;99.90
10276;DHT22;5183;51.190;6.820;2023-02-23T05:54:27;8.40;99.90
10276;DHT22;5183;51.190;6.820;2023-02-23T05:56:54;8.30;99.90
10276;DHT22;5183;51.190;6.820;2023-02-23T05:59:22;8.30;99.90
10276;DHT22;5183;51.190;6.820;2023-02-23T06:01:49;8.30;99.90
10276;DHT22;5183;51.190;6.820;2023-02-23T06:04:15;8.20;99.90
10276;DHT22;5183;51.190;6.820;2023-02-23T06:06:42;8.20;99.90
10276;DHT22;5183;51.190;6.820;2023-02-23T06:09:09;8.20;99.90
10276;DHT22;5183;51.190;6.820;2023-02-23T06:11:36;8.20;99.90
10276;DHT22;5183;51.190;6.820;2023-02-23T06:14:03;8.20;99.90
10276;DHT22;5183;51.190;6.820;2023-02-23T06:16:31;8.30;99.90
10276;DHT22;5183;51.190;6.820;2023-02-23T06:18:58;8.30;99.90
10276;DHT22;5183;51.190;6.820;2023-02-23T06:21:25;8.30;99.90
10276;DHT22;5183;51.190;6.820;2023-02-23T06:23:52;8.30;99.90
10276;DHT22;5183;51.190;6.820;2023-02-23T06:26:19;8.30;99.90
10276;DHT22;5183;51.190;6.820;2023-02-23T06:28:46;8.30;99.90
10276;DHT22;5183;51.190;6.820;2023-02-23T06:31:12;8.30;99.90
10276;DHT22;5183;51.190;6.820;2023-02-23T06:33:41;8.30;99.90
10276;DHT22;5183;51.190;6.820;2023-02-23T06:36:08;8.30;99.90
10276;DHT22;5183;51.190;6.820;2023-02-23T06:38:35;8.30;99.90
10276;DHT22;5183;51.190;6.820;2023-02-23T06:41:06;8.30;99.90
10276;DHT22;5183;51.190;6.820;2023-02-23T06:43:33;8.30;99.90
10276;DHT22;5183;51.190;6.820;2023-02-23T06:46:00;8.30;99.90
10276;DHT22;5183;51.190;6.820;2023-02-23T06:48:27;8.30;99.90
10276;DHT22;5183;51.190;6.820;2023-02-23T06:50:57;8.30;99.90
10276;DHT22;5183;51.190;6.820;2023-02-23T06:53:24;8.30;99.90
10276;DHT22;5183;51.190;6.820;2023-02-23T06:55:50;8.30;99.90
10276;DHT22;5183;51.190;6.820;2023-02-23T06:58:17;8.30;99.90
10276;DHT22;5183;51.190;6.820;2023-02-23T07:00:44;8.30;99.90
10276;DHT22;5183;51.190;6.820;2023-02-23T07:03:11;8.30;99.90
10276;DHT22;5183;51.190;6.820;2023-02-23T07:05:38;8.30;99.90
10276;DHT22;5183;51.190;6.820;2023-02-23T07:08:06;8.30;99.90
10276;DHT22;5183;51.190;6.820;2023-02-23T07:10:33;8.30;99.90
10276;DHT22;5183;51.190;6.820;2023-02-23T07:13:00;8.30;99.90
10276;DHT22;5183;51.190;6.820;2023-02-23T07:15:27;8.30;99.90
10276;DHT22;5183;51.190;6.820;2023-02-23T07:17:54;8.30;99.90
10276;DHT22;5183;51.190;6.820;2023-02-23T07:20:22;8.20;99.90
10276;DHT22;5183;51.190;6.820;2023-02-23T07:22:48;8.30;99.90
10276;DHT22;5183;51.190;6.820;2023-02-23T07:25:17;8.30;99.90
10276;DHT22;5183;51.190;6.820;2023-02-23T07:27:44;8.30;99.90
10276;DHT22;5183;51.190;6.820;2023-02-23T07:30:12;8.30;99.90
10276;DHT22;5183;51.190;6.820;2023-02-23T07:32:40;8.30;99.90
10276;DHT22;5183;51.190;6.820;2023-02-23T07:35:07;8.30;99.90
10276;DHT22;5183;51.190;6.820;2023-02-23T07:37:34;8.40;99.90
10276;DHT22;5183;51.190;6.820;2023-02-23T07:40:01;8.40;99.90
10276;DHT22;5183;51.190;6.820;2023-02-23T07:42:29;8.30;99.90
10276;DHT22;5183;51.190;6.820;2023-02-23T07:44:56;8.40;99.90
10276;DHT22;5183;51.190;6.820;2023-02-23T07:47:23;8.40;99.90
10276;DHT22;5183;51.190;6.820;2023-02-23T07:49:56;8.30;99.90
10276;DHT22;5183;51.190;6.820;2023-02-23T07:52:23;8.30;99.90
10276;DHT22;5183;51.190;6.820;2023-02-23T07:54:50;8.30;99.90
10276;DHT22;5183;51.190;6.820;2023-02-23T07:57:17;8.30;99.90
10276;DHT22;5183;51.190;6.820;2023-02-23T07:59:46;8.30;99.90
10276;DHT22;5183;51.190;6.820;2023-02-23T08:02:14;8.40;99.90
10276;DHT22;5183;51.190;6.820;2023-02-23T08:04:41;8.40;99.90
10276;DHT22;5183;51.190;6.820;2023-02-23T08:07:08;8.30;99.90
10276;DHT22;5183;51.190;6.820;2023-02-23T08:09:35;8.40;99.90
10276;DHT22;5183;51.190;6.820;2023-02-23T08:12:03;8.40;99.90
10276;DHT22;5183;51.190;6.820;2023-02-23T08:14:30;8.40;99.90
10276;DHT22;5183;51.190;6.820;2023-02-23T08:16:58;8.40;99.90
10276;DHT22;5183;51.190;6.820;2023-02-23T08:19:26;8.40;99.90
10276;DHT22;5183;51.190;6.820;2023-02-23T08:21:53;8.50;99.90
10276;DHT22;5183;51.190;6.820;2023-02-23T08:24:21;8.40;99.90
10276;DHT22;5183;51.190;6.820;2023-02-23T08:26:47;8.50;99.90
10276;DHT22;5183;51.190;6.820;2023-02-23T08:29:15;8.40;99.90
10276;DHT22;5183;51.190;6.820;2023-02-23T08:31:42;8.50;99.90
10276;DHT22;5183;51.190;6.820;2023-02-23T08:34:10;8.50;99.90
10276;DHT22;5183;51.190;6.820;2023-02-23T08:36:37;8.40;99.90
10276;DHT22;5183;51.190;6.820;2023-02-23T08:39:04;8.40;99.90
10276;DHT22;5183;51.190;6.820;2023-02-23T08:41:32;8.40;99.90
10276;DHT22;5183;51.190;6.820;2023-02-23T08:43:58;8.40;99.90
10276;DHT22;5183;51.190;6.820;2023-02-23T08:46:25;8.40;99.90
10276;DHT22;5183;51.190;6.820;2023-02-23T08:48:52;8.40;99.90
10276;DHT22;5183;51.190;6.820;2023-02-23T08:51:22;8.40;99.90
10276;DHT22;5183;51.190;6.820;2023-02-23T08:53:49;8.40;99.90
10276;DHT22;5183;51.190;6.820;2023-02-23T08:56:16;8.40;99.90
10276;DHT22;5183;51.190;6.820;2023-02-23T08:58:42;8.40;99.90
10276;DHT22;5183;51.190;6.820;2023-02-23T09:01:15;8.40;99.90
10276;DHT22;5183;51.190;6.820;2023-02-23T09:03:43;8.40;99.90
10276;DHT22;5183;51.190;6.820;2023-02-23T09:06:15;8.50;99.90
10276;DHT22;5183;51.190;6.820;2023-02-23T09:08:43;8.50;99.90
10276;DHT22;5183;51.190;6.820;2023-02-23T09:11:10;8.60;99.90
10276;DHT22;5183;51.190;6.820;2023-02-23T09:13:37;8.60;99.90
10276;DHT22;5183;51.190;6.820;2023-02-23T09:16:04;8.70;99.90
10276;DHT22;5183;51.190;6.820;2023-02-23T09:18:32;8.80;99.90
10276;DHT22;5183;51.190;6.820;2023-02-23T09:21:01;8.80;99.90
10276;DHT22;5183;51.190;6.820;2023-02-23T09:23:31;8.80;99.90
10276;DHT22;5183;51.190;6.820;2023-02-23T09:26:03;8.80;99.90
10276;DHT22;5183;51.190;6.820;2023-02-23T09:28:30;8.90;99.90
10276;DHT22;5183;51.190;6.820;2023-02-23T09:31:03;9.00;99.90
10276;DHT22;5183;51.190;6.820;2023-02-23T09:33:30;9.00;99.90
10276;DHT22;5183;51.190;6.820;2023-02-23T09:35:57;9.20;99.90
10276;DHT22;5183;51.190;6.820;2023-02-23T09:38:24;9.20;99.90
10276;DHT22;5183;51.190;6.820;2023-02-23T09:40:52;9.20;99.90
10276;DHT22;5183;51.190;6.820;2023-02-23T09:43:24;9.10;99.90
10276;DHT22;5183;51.190;6.820;2023-02-23T09:46:01;9.20;99.90
10276;DHT22;5183;51.190;6.820;2023-02-23T09:48:29;9.20;99.90
10276;DHT22;5183;51.190;6.820;2023-02-23T09:50:57;9.20;99.90
10276;DHT22;5183;51.190;6.820;2023-02-23T09:53:33;9.10;99.90
10276;DHT22;5183;51.190;6.820;2023-02-23T09:56:06;9.10;99.90
10276;DHT22;5183;51.190;6.820;2023-02-23T09:58:36;9.00;99.90
10276;DHT22;5183;51.190;6.820;2023-02-23T10:01:33;9.00;99.90
10276;DHT22;5183;51.190;6.820;2023-02-23T10:04:06;9.10;99.90
10276;DHT22;5183;51.190;6.820;2023-02-23T10:06:37;9.00;99.90
10276;DHT22;5183;51.190;6.820;2023-02-23T10:09:14;9.00;99.90
10276;DHT22;5183;51.190;6.820;2023-02-23T10:11:47;9.00;99.90
10276;DHT22;5183;51.190;6.820;2023-02-23T10:14:26;9.00;99.90
10276;DHT22;5183;51.190;6.820;2023-02-23T10:17:08;8.90;99.90
10276;DHT22;5183;51.190;6.820;2023-02-23T10:19:43;8.90;99.90
10276;DHT22;5183;51.190;6.820;2023-02-23T10:22:13;8.90;99.90
10276;DHT22;5183;51.190;6.820;2023-02-23T10:24:44;8.80;99.90
10276;DHT22;5183;51.190;6.820;2023-02-23T10:27:15;8.70;99.90
10276;DHT22;5183;51.190;6.820;2023-02-23T10:29:47;8.70;99.90
10276;DHT22;5183;51.190;6.820;2023-02-23T10:32:20;8.70;99.90
10276;DHT22;5183;51.190;6.820;2023-02-23T10:34:52;8.70;99.90
10276;DHT22;5183;51.190;6.820;2023-02-23T10:37:21;8.60;99.90
10276;DHT22;5183;51.190;6.820;2023-02-23T10:39:50;8.60;99.90
10276;DHT22;5183;51.190;6.820;2023-02-23T10:42:21;8.50;99.90
10276;DHT22;5183;51.190;6.820;2023-02-23T10:44:50;8.50;99.90
10276;DHT22;5183;51.190;6.820;2023-02-23T10:47:20;8.50;99.90
10276;DHT22;5183;51.190;6.820;2023-02-23T10:49:50;8.50;99.90
10276;DHT22;5183;51.190;6.820;2023-02-23T10:52:20;8.60;99.90
10276;DHT22;5183;51.190;6.820;2023-02-23T10:54:49;8.60;99.90
10276;DHT22;5183;51.190;6.820;2023-02-23T10:57:23;8.60;99.90
10276;DHT22;5183;51.190;6.820;2023-02-23T11:00:25;8.50;99.90
10276;DHT22;5183;51.190;6.820;2023-02-23T11:02:58;8.60;99.90
10276;DHT22;5183;51.190;6.820;2023-02-23T11:05:34;8.60;99.90
10276;DHT22;5183;51.190;6.820;2023-02-23T11:08:09;8.60;99.90
10276;DHT22;5183;51.190;6.820;2023-02-23T11:10:37;8.60;99.90
10276;DHT22;5183;51.190;6.820;2023-02-23T11:13:03;8.60;99.90
10276;DHT22;5183;51.190;6.820;2023-02-23T11:15:33;8.50;99.90
10276;DHT22;5183;51.190;6.820;2023-02-23T11:18:01;8.50;99.90
10276;DHT22;5183;51.190;6.820;2023-02-23T11:20:31;8.50;99.90
10276;DHT22;5183;51.190;6.820;2023-02-23T11:23:00;8.60;99.90
10276;DHT22;5183;51.190;6.820;2023-02-23T11:25:29;8.60;99.90
10276;DHT22;5183;51.190;6.820;2023-02-23T11:27:57;8.70;99.90
10276;DHT22;5183;51.190;6.820;2023-02-23T11:30:36;8.70;99.90
10276;DHT22;5183;51.190;6.820;2023-02-23T11:33:12;8.80;99.90
10276;DHT22;5183;51.190;6.820;2023-02-23T11:35:41;8.80;99.90
10276;DHT22;5183;51.190;6.820;2023-02-23T11:38:15;8.80;99.90
10276;DHT22;5183;51.190;6.820;2023-02-23T11:40:58;8.80;99.90
10276;DHT22;5183;51.190;6.820;2023-02-23T11:43:25;8.90;99.90
10276;DHT22;5183;51.190;6.820;2023-02-23T11:45:55;8.90;99.90
10276;DHT22;5183;51.190;6.820;2023-02-23T11:48:27;9.00;99.90
10276;DHT22;5183;51.190;6.820;2023-02-23T11:50:55;9.10;99.90
10276;DHT22;5183;51.190;6.820;2023-02-23T11:53:27;9.20;99.90
10276;DHT22;5183;51.190;6.820;2023-02-23T11:55:58;9.30;99.90
10276;DHT22;5183;51.190;6.820;2023-02-23T11:58:33;9.40;99.90
10276;DHT22;5183;51.190;6.820;2023-02-23T12:01:05;9.30;99.90
10276;DHT22;5183;51.190;6.820;2023-02-23T12:03:37;9.20;99.90
10276;DHT22;5183;51.190;6.820;2023-02-23T12:06:09;9.10;99.90
10276;DHT22;5183;51.190;6.820;2023-02-23T12:08:39;9.20;99.90
10276;DHT22;5183;51.190;6.820;2023-02-23T12:11:12;9.10;99.90
10276;DHT22;5183;51.190;6.820;2023-02-23T12:13:43;9.10;99.90
10276;DHT22;5183;51.190;6.820;2023-02-23T12:16:17;9.10;99.90
10276;DHT22;5183;51.190;6.820;2023-02-23T12:18:47;9.00;99.90
10276;DHT22;5183;51.190;6.820;2023-02-23T12:21:25;8.90;99.90
10276;DHT22;5183;51.190;6.820;2023-02-23T12:24:02;8.80;99.90
10276;DHT22;5183;51.190;6.820;2023-02-23T12:26:32;8.60;99.90
10276;DHT22;5183;51.190;6.820;2023-02-23T12:29:07;8.60;99.90
10276;DHT22;5183;51.190;6.820;2023-02-23T12:31:44;8.50;99.90
10276;DHT22;5183;51.190;6.820;2023-02-23T12:34:17;8.50;99.90
10276;DHT22;5183;51.190;6.820;2023-02-23T12:36:51;8.50;99.90
10276;DHT22;5183;51.190;6.820;2023-02-23T12:39:23;8.60;99.90
10276;DHT22;5183;51.190;6.820;2023-02-23T12:42:00;8.50;99.90
10276;DHT22;5183;51.190;6.820;2023-02-23T12:44:34;8.50;99.90
10276;DHT22;5183;51.190;6.820;2023-02-23T12:47:11;8.60;99.90
10276;DHT22;5183;51.190;6.820;2023-02-23T12:49:43;8.60;99.90
10276;DHT22;5183;51.190;6.820;2023-02-23T12:52:14;8.60;99.90
10276;DHT22;5183;51.190;6.820;2023-02-23T12:54:43;8.70;99.90
10276;DHT22;5183;51.190;6.820;2023-02-23T12:57:20;8.80;99.90
10276;DHT22;5183;51.190;6.820;2023-02-23T13:00:01;8.80;99.90
10276;DHT22;5183;51.190;6.820;2023-02-23T13:02:49;8.90;99.90
10276;DHT22;5183;51.190;6.820;2023-02-23T13:05:22;8.80;99.90
10276;DHT22;5183;51.190;6.820;2023-02-23T13:08:01;8.90;99.90
10276;DHT22;5183;51.190;6.820;2023-02-23T13:10:35;8.90;99.90
10276;DHT22;5183;51.190;6.820;2023-02-23T13:13:15;8.90;99.90
10276;DHT22;5183;51.190;6.820;2023-02-23T13:15:54;9.00;99.90
10276;DHT22;5183;51.190;6.820;2023-02-23T13:18:28;9.00;99.90
10276;DHT22;5183;51.190;6.820;2023-02-23T13:21:01;9.00;99.90
10276;DHT22;5183;51.190;6.820;2023-02-23T13:23:33;9.00;99.90
10276;DHT22;5183;51.190;6.820;2023-02-23T13:26:07;9.10;99.90
10276;DHT22;5183;51.190;6.820;2023-02-23T13:28:45;9.00;99.90
10276;DHT22;5183;51.190;6.820;2023-02-23T13:31:21;9.00;99.90
10276;DHT22;5183;51.190;6.820;2023-02-23T13:33:50;8.90;99.90
10276;DHT22;5183;51.190;6.820;2023-02-23T13:36:18;8.90;99.90
10276;DHT22;5183;51.190;6.820;2023-02-23T13:41:48;9.00;99.90
10276;DHT22;5183;51.190;6.820;2023-02-23T13:44:23;9.00;99.90
10276;DHT22;5183;51.190;6.820;2023-02-23T13:46:56;9.00;99.90
10276;DHT22;5183;51.190;6.820;2023-02-23T13:49:35;8.90;99.90
10276;DHT22;5183;51.190;6.820;2023-02-23T13:52:13;9.00;99.90
10276;DHT22;5183;51.190;6.820;2023-02-23T13:54:52;9.00;99.90
10276;DHT22;5183;51.190;6.820;2023-02-23T13:57:21;9.10;99.90
10276;DHT22;5183;51.190;6.820;2023-02-23T13:59:49;9.10;99.90
10276;DHT22;5183;51.190;6.820;2023-02-23T14:02:26;9.20;99.90
10276;DHT22;5183;51.190;6.820;2023-02-23T14:05:03;9.20;99.90
10276;DHT22;5183;51.190;6.820;2023-02-23T14:07:32;9.10;99.90
10276;DHT22;5183;51.190;6.820;2023-02-23T14:10:05;9.00;99.90
10276;DHT22;5183;51.190;6.820;2023-02-23T14:12:33;9.00;99.90
10276;DHT22;5183;51.190;6.820;2023-02-23T14:15:28;9.00;99.90
10276;DHT22;5183;51.190;6.820;2023-02-23T14:18:29;9.00;99.90
10276;DHT22;5183;51.190;6.820;2023-02-23T14:21:02;9.00;99.90
10276;DHT22;5183;51.190;6.820;2023-02-23T14:23:34;9.00;99.90
10276;DHT22;5183;51.190;6.820;2023-02-23T14:26:17;9.00;99.90
10276;DHT22;5183;51.190;6.820;2023-02-23T14:29:23;8.90;99.90
10276;DHT22;5183;51.190;6.820;2023-02-23T14:31:56;8.90;99.90
10276;DHT22;5183;51.190;6.820;2023-02-23T14:34:46;8.90;99.90
10276;DHT22;5183;51.190;6.820;2023-02-23T14:37:17;8.90;99.90
10276;DHT22;5183;51.190;6.820;2023-02-23T14:39:48;9.00;99.90
10276;DHT22;5183;51.190;6.820;2023-02-23T14:42:20;9.00;99.90
10276;DHT22;5183;51.190;6.820;2023-02-23T14:44:48;9.00;99.90
10276;DHT22;5183;51.190;6.820;2023-02-23T14:47:19;9.00;99.90
10276;DHT22;5183;51.190;6.820;2023-02-23T14:49:48;9.00;99.90
10276;DHT22;5183;51.190;6.820;2023-02-23T14:52:20;9.10;94.10
10276;DHT22;5183;51.190;6.820;2023-02-23T14:54:47;9.10;99.90
10276;DHT22;5183;51.190;6.820;2023-02-23T14:57:19;9.00;92.40
10276;DHT22;5183;51.190;6.820;2023-02-23T14:59:53;9.00;99.90
10276;DHT22;5183;51.190;6.820;2023-02-23T15:02:21;9.00;99.90
10276;DHT22;5183;51.190;6.820;2023-02-23T15:04:49;8.90;99.90
10276;DHT22;5183;51.190;6.820;2023-02-23T15:07:20;9.00;99.90
10276;DHT22;5183;51.190;6.820;2023-02-23T15:09:50;9.00;97.30
10276;DHT22;5183;51.190;6.820;2023-02-23T15:12:20;9.00;91.30
10276;DHT22;5183;51.190;6.820;2023-02-23T15:14:52;8.90;99.90
10276;DHT22;5183;51.190;6.820;2023-02-23T15:17:22;8.90;99.90
10276;DHT22;5183;51.190;6.820;2023-02-23T15:19:53;8.80;99.90
10276;DHT22;5183;51.190;6.820;2023-02-23T15:22:27;8.70;99.90
10276;DHT22;5183;51.190;6.820;2023-02-23T15:24:57;8.70;99.90
10276;DHT22;5183;51.190;6.820;2023-02-23T15:27:29;8.70;99.90
10276;DHT22;5183;51.190;6.820;2023-02-23T15:29:56;8.70;99.90
10276;DHT22;5183;51.190;6.820;2023-02-23T15:32:24;8.60;99.90
10276;DHT22;5183;51.190;6.820;2023-02-23T15:34:52;8.60;99.90
10276;DHT22;5183;51.190;6.820;2023-02-23T15:37:29;8.60;99.90
10276;DHT22;5183;51.190;6.820;2023-02-23T15:40:00;8.60;99.90
10276;DHT22;5183;51.190;6.820;2023-02-23T15:42:34;8.60;99.90
10276;DHT22;5183;51.190;6.820;2023-02-23T15:45:04;8.60;99.90
10276;DHT22;5183;51.190;6.820;2023-02-23T15:47:37;8.60;99.90
10276;DHT22;5183;51.190;6.820;2023-02-23T15:50:07;8.60;99.90
10276;DHT22;5183;51.190;6.820;2023-02-23T15:52:45;8.60;99.90
10276;DHT22;5183;51.190;6.820;2023-02-23T15:55:17;8.70;99.90
10276;DHT22;5183;51.190;6.820;2023-02-23T15:57:51;8.70;99.90
10276;DHT22;5183;51.190;6.820;2023-02-23T16:00:36;8.80;99.90
10276;DHT22;5183;51.190;6.820;2023-02-23T16:03:05;8.80;99.90
10276;DHT22;5183;51.190;6.820;2023-02-23T16:05:34;8.80;99.90
10276;DHT22;5183;51.190;6.820;2023-02-23T16:08:06;8.80;99.90
10276;DHT22;5183;51.190;6.820;2023-02-23T16:10:44;8.80;99.90
10276;DHT22;5183;51.190;6.820;2023-02-23T16:13:14;8.70;99.90
10276;DHT22;5183;51.190;6.820;2023-02-23T16:15:42;8.70;99.90
10276;DHT22;5183;51.190;6.820;2023-02-23T16:18:13;8.80;99.90
10276;DHT22;5183;51.190;6.820;2023-02-23T16:20:44;8.80;99.90
10276;DHT22;5183;51.190;6.820;2023-02-23T16:23:22;8.80;99.90
10276;DHT22;5183;51.190;6.820;2023-02-23T16:25:53;8.80;99.90
10276;DHT22;5183;51.190;6.820;2023-02-23T16:28:21;8.80;97.10
10276;DHT22;5183;51.190;6.820;2023-02-23T16:30:57;8.70;88.50
10276;DHT22;5183;51.190;6.820;2023-02-23T16:33:26;8.70;93.20
10276;DHT22;5183;51.190;6.820;2023-02-23T16:36:05;8.80;64.00
10276;DHT22;5183;51.190;6.820;2023-02-23T16:38:36;8.80;46.20
10276;DHT22;5183;51.190;6.820;2023-02-23T16:41:04;8.70;36.20